Rechercher aéroport 
image banner adimage banner adimage banner ad
image banner ad

O81 - Tulelake Muni

Situé à Tulelake, United States

ICAO - O81, IATA -

Données fournies par Airmate  

Information générale

Coordonnées: N41°53'26" W121°21'38"
Élévation : 4044 feet MSL.
Variation magnétique : 17° East
Voir autres Aéroports à California

Données opérationnelles

Special qualification required
Heure actuelle UTC:
Heure actuelle locale:
Météo à : KLMT - Crater Lake-Klamath Rgnl ( 43 km )
METAR: KLMT 020453Z AUTO 26006KT 10SM CLR 24/09 A3019 RMK AO2 SLP176 T02390094
TAF: KLMT 012321Z 0200/0224 33010KT P6SM BKN060 BKN200 FM020500 VRB03KT P6SM SCT060 FM022100 22011G18KT P6SM SCT060
Voir NOTAMs / SUP AIP / TFR affectant cet aéroport [VIEW]
Fréquences de communication: [VIEW]

Pistes:

Identifiant RWYQFULongueur (ft)Largeur (ft)SurfaceLDA (ft)
11129°357744ASPH
29309°357744ASPH

Coordonnées de l'aéroport

Adresse: Tulelake United States

Vue satellite de O81